Royse City's Hourly Summary for Friday, May 11, 2018
Hour Temp
(f)
RH
(%)
Solar Rad.
(MJ/m2)
Rainfall
(in)
Wind
(mph)
5/11/2018 12:00 AM 71 65 0 0 1.88
5/11/2018 1:00 AM 72 65 0 0 2.64
5/11/2018 2:00 AM 72 67 0 0 2.78
5/11/2018 3:00 AM 71 68 0 0 2.97
5/11/2018 4:00 AM 70 72 0 0 2.2
5/11/2018 5:00 AM 68 77 0 0 1.96
5/11/2018 6:00 AM 67 82 0 0 2.1
5/11/2018 7:00 AM 68 85 0.02 0 2.23
5/11/2018 8:00 AM 69 83 0.26 0 2.29
5/11/2018 9:00 AM 71 74 0.8 0 3.57
5/11/2018 10:00 AM 74 64 1.48 0 3.77
5/11/2018 11:00 AM 77 58 2.31 0 4.54
5/11/2018 12:00 PM 80 52 3.12 0 4.62
5/11/2018 1:00 PM 81 50 2.61 0 4.25
5/11/2018 2:00 PM 83 47 2.95 0 3.89
5/11/2018 3:00 PM 84 43 2.73 0 3.99
5/11/2018 4:00 PM 85 42 2.58 0 3.64
5/11/2018 5:00 PM 85 41 1.89 0 3.83
5/11/2018 6:00 PM 86 41 0.63 0 3.72
5/11/2018 7:00 PM 84 42 0.84 0 3.38
5/11/2018 8:00 PM 82 44 0.24 0 2.18
5/11/2018 9:00 PM 78 55 0.01 0 1.46
5/11/2018 10:00 PM 75 61 0 0 0.99
5/11/2018 11:00 PM 73 67 0 0 1.3
Data Summary 76 60 22.47 0.00 2.92